createdAt,value
2022-10-25T00:01:31.786Z,12.60
2022-10-25T00:03:59.141Z,13.07
2022-10-25T00:06:26.453Z,11.83
2022-10-25T00:08:53.440Z,12.83
2022-10-25T00:11:26.332Z,11.73
2022-10-25T00:13:55.866Z,10.77
2022-10-25T00:16:30.396Z,12.10
2022-10-25T00:18:57.539Z,10.30
2022-10-25T00:21:25.409Z,11.60
2022-10-25T00:23:53.141Z,10.37
2022-10-25T00:26:20.911Z,10.80
2022-10-25T00:28:48.643Z,9.90
2022-10-25T00:31:16.792Z,10.10
2022-10-25T00:33:44.510Z,9.93
2022-10-25T00:36:18.676Z,10.60
2022-10-25T00:38:46.274Z,9.87
2022-10-25T00:41:15.822Z,10.97
2022-10-25T00:43:49.049Z,10.07
2022-10-25T00:46:23.203Z,10.43
2022-10-25T00:49:13.934Z,9.50
2022-10-25T00:51:46.834Z,10.43
2022-10-25T00:54:17.615Z,9.53
2022-10-25T00:56:48.238Z,10.90
2022-10-25T00:59:20.468Z,9.87
2022-10-25T01:01:48.011Z,10.20
2022-10-25T01:04:16.937Z,11.37
2022-10-25T01:06:49.810Z,11.43
2022-10-25T01:09:20.630Z,11.37
2022-10-25T01:11:47.837Z,12.93
2022-10-25T01:14:16.592Z,13.33
2022-10-25T01:17:15.300Z,14.47
2022-10-25T01:19:50.832Z,13.50
2022-10-25T01:22:27.828Z,13.67
2022-10-25T01:25:32.536Z,12.73
2022-10-25T01:28:03.865Z,11.63
2022-10-25T01:30:56.580Z,11.60
2022-10-25T01:33:28.155Z,11.50
2022-10-25T01:36:01.986Z,11.53
2022-10-25T01:38:57.064Z,12.57
2022-10-25T01:41:45.024Z,12.73
2022-10-25T01:44:23.888Z,14.00
2022-10-25T01:46:56.897Z,13.50
2022-10-25T01:49:50.557Z,13.83
2022-10-25T01:52:22.716Z,12.93
2022-10-25T01:54:50.858Z,15.50
2022-10-25T01:57:47.390Z,14.63
2022-10-25T02:00:18.606Z,15.30
2022-10-25T02:03:10.597Z,15.83
2022-10-25T02:05:48.501Z,16.53
2022-10-25T02:08:36.530Z,16.60
2022-10-25T02:11:15.447Z,15.60
2022-10-25T02:13:47.770Z,15.77
2022-10-25T02:16:25.215Z,15.97
2022-10-25T02:18:58.300Z,16.63
2022-10-25T02:21:27.357Z,17.23
2022-10-25T02:23:56.381Z,17.00
2022-10-25T02:26:24.859Z,16.97
2022-10-25T02:28:53.269Z,16.53
2022-10-25T02:31:22.316Z,16.63
2022-10-25T02:33:49.820Z,16.53
2022-10-25T02:36:24.162Z,17.13
2022-10-25T02:38:52.857Z,16.47
2022-10-25T02:41:22.913Z,17.17
2022-10-25T02:43:50.141Z,16.50
2022-10-25T02:46:20.294Z,17.07
2022-10-25T02:48:47.785Z,17.07
2022-10-25T02:51:15.975Z,16.97
2022-10-25T02:53:43.775Z,16.70
2022-10-25T02:56:16.909Z,16.67
2022-10-25T02:58:44.689Z,16.30
2022-10-25T03:01:13.207Z,16.53
2022-10-25T03:03:40.360Z,15.47
2022-10-25T03:06:08.562Z,16.47
2022-10-25T03:08:35.885Z,15.60
2022-10-25T03:11:03.553Z,17.60
2022-10-25T03:13:30.474Z,16.50
2022-10-25T03:15:57.901Z,15.13
2022-10-25T03:18:24.823Z,16.03
2022-10-25T03:20:52.349Z,16.90
2022-10-25T03:23:19.288Z,16.73
2022-10-25T03:25:47.237Z,17.67
2022-10-25T03:28:15.632Z,15.77
2022-10-25T03:30:43.507Z,16.07
2022-10-25T03:33:10.639Z,15.37
2022-10-25T03:35:37.743Z,15.60
2022-10-25T03:38:04.730Z,15.77
2022-10-25T03:40:32.126Z,15.33
2022-10-25T03:42:59.008Z,15.67
2022-10-25T03:45:26.149Z,15.37
2022-10-25T03:47:53.074Z,14.80
2022-10-25T03:50:20.220Z,15.23
2022-10-25T03:52:47.136Z,15.00
2022-10-25T03:55:14.398Z,14.93
2022-10-25T03:57:41.274Z,15.53
2022-10-25T04:00:09.310Z,15.87
2022-10-25T04:02:36.297Z,15.83
2022-10-25T04:05:03.602Z,15.40
2022-10-25T04:07:30.509Z,14.77
2022-10-25T04:09:57.598Z,15.70
2022-10-25T04:12:24.450Z,13.63
2022-10-25T04:14:51.578Z,14.00
2022-10-25T04:17:18.505Z,14.37
2022-10-25T04:19:45.661Z,14.87
2022-10-25T04:22:13.124Z,14.73
2022-10-25T04:24:40.245Z,14.33
2022-10-25T04:27:07.120Z,15.20
2022-10-25T04:29:34.230Z,15.37
2022-10-25T04:32:01.163Z,13.73
2022-10-25T04:34:28.272Z,14.70
2022-10-25T04:36:55.146Z,15.83
2022-10-25T04:39:22.324Z,13.80
2022-10-25T04:41:49.221Z,12.77
2022-10-25T04:44:16.446Z,12.90
2022-10-25T04:46:46.420Z,13.63
2022-10-25T04:49:16.206Z,13.50
2022-10-25T04:51:43.167Z,13.17
2022-10-25T04:54:12.994Z,13.13
2022-10-25T04:56:40.148Z,13.40
2022-10-25T04:59:08.535Z,14.60
2022-10-25T05:01:35.704Z,14.07
2022-10-25T05:04:02.979Z,16.27
2022-10-25T05:06:29.893Z,13.63
2022-10-25T05:08:57.040Z,14.00
2022-10-25T05:11:25.221Z,14.33
2022-10-25T05:13:52.546Z,14.00
2022-10-25T05:16:23.658Z,13.90
2022-10-25T05:18:54.371Z,14.67
2022-10-25T05:21:22.620Z,13.40
2022-10-25T05:23:49.793Z,14.33
2022-10-25T05:26:19.276Z,14.97
2022-10-25T05:28:48.507Z,15.70
2022-10-25T05:31:16.966Z,15.10
2022-10-25T05:33:47.798Z,13.77
2022-10-25T05:36:15.133Z,16.03
2022-10-25T05:38:42.705Z,16.47
2022-10-25T05:41:12.084Z,14.93
2022-10-25T05:43:39.580Z,14.40
2022-10-25T05:46:15.799Z,14.70
2022-10-25T05:48:48.408Z,16.27
2022-10-25T05:51:38.581Z,15.90
2022-10-25T05:54:10.909Z,15.07
2022-10-25T05:56:38.510Z,16.20
2022-10-25T05:59:14.463Z,16.17
2022-10-25T06:01:46.372Z,16.23
2022-10-25T06:04:14.653Z,18.03
2022-10-25T06:06:43.752Z,17.30
2022-10-25T06:09:11.728Z,16.23
2022-10-25T06:11:39.450Z,17.83
2022-10-25T06:14:07.178Z,16.03
2022-10-25T06:16:34.226Z,16.27
2022-10-25T06:19:01.435Z,17.07
2022-10-25T06:21:29.658Z,16.73
2022-10-25T06:23:58.142Z,17.33
2022-10-25T06:26:27.862Z,16.47
2022-10-25T06:28:57.818Z,16.20
2022-10-25T06:31:25.357Z,16.53
2022-10-25T06:33:52.890Z,16.37
2022-10-25T06:36:22.087Z,17.13
2022-10-25T06:38:50.351Z,16.23
2022-10-25T06:41:21.273Z,16.10
2022-10-25T06:43:49.261Z,15.90
2022-10-25T06:46:23.493Z,14.27
2022-10-25T06:48:52.527Z,14.33
2022-10-25T06:51:20.468Z,13.10
2022-10-25T06:53:47.923Z,13.07
2022-10-25T06:56:15.302Z,12.47
2022-10-25T06:58:42.740Z,12.43
2022-10-25T07:01:15.061Z,11.77
2022-10-25T07:03:43.083Z,12.80
2022-10-25T07:06:16.520Z,12.00
2022-10-25T07:08:45.681Z,11.50
2022-10-25T07:11:18.128Z,10.67
2022-10-25T07:13:46.062Z,10.50
2022-10-25T07:16:15.165Z,10.30
2022-10-25T07:18:42.862Z,11.13
2022-10-25T07:21:15.834Z,10.47
2022-10-25T07:23:43.705Z,10.63
2022-10-25T07:26:14.544Z,10.80
2022-10-25T07:28:44.300Z,10.70
2022-10-25T07:31:17.249Z,10.13
2022-10-25T07:33:44.589Z,9.93
2022-10-25T07:36:12.081Z,9.20
2022-10-25T07:38:39.951Z,9.77
2022-10-25T07:41:07.925Z,9.37
2022-10-25T07:43:35.344Z,9.50
2022-10-25T07:46:02.491Z,9.83
2022-10-25T07:48:54.559Z,10.47
2022-10-25T07:51:23.791Z,8.90
2022-10-25T07:53:52.603Z,8.47
2022-10-25T07:56:23.301Z,9.07
2022-10-25T07:58:54.267Z,9.00
2022-10-25T08:01:23.798Z,8.93
2022-10-25T08:03:52.531Z,9.57
2022-10-25T08:06:21.217Z,9.87
2022-10-25T08:08:48.722Z,8.27
2022-10-25T08:11:15.690Z,9.70
2022-10-25T08:13:43.108Z,9.17
2022-10-25T08:16:10.029Z,9.00
2022-10-25T08:18:37.306Z,8.07
2022-10-25T08:21:04.946Z,8.67
2022-10-25T08:23:33.336Z,9.10
2022-10-25T08:26:01.254Z,9.20
2022-10-25T08:28:28.900Z,9.50
2022-10-25T08:30:55.938Z,8.03
2022-10-25T08:33:24.028Z,8.67
2022-10-25T08:35:51.237Z,9.10
2022-10-25T08:38:18.388Z,8.93
2022-10-25T08:41:03.282Z,9.17
2022-10-25T08:43:49.670Z,8.70
2022-10-25T08:46:39.129Z,9.10
2022-10-25T08:49:21.300Z,9.60
2022-10-25T08:51:50.637Z,9.93
2022-10-25T08:54:37.671Z,8.97
2022-10-25T08:57:24.649Z,9.70
2022-10-25T08:59:55.441Z,10.40
2022-10-25T09:02:39.515Z,10.37
2022-10-25T09:05:28.101Z,8.73
2022-10-25T09:08:05.144Z,9.57
2022-10-25T09:10:43.888Z,10.27
2022-10-25T09:13:29.528Z,9.17
2022-10-25T09:16:18.989Z,9.77
2022-10-25T09:18:48.652Z,10.40
2022-10-25T09:21:23.211Z,9.67
2022-10-25T09:23:57.966Z,9.27
2022-10-25T09:26:41.369Z,8.97
2022-10-25T09:29:22.571Z,8.50
2022-10-25T09:31:55.996Z,8.23
2022-10-25T09:34:26.172Z,7.57
2022-10-25T09:36:59.135Z,8.40
2022-10-25T09:39:44.180Z,8.13
2022-10-25T09:42:36.042Z,7.63
2022-10-25T09:45:42.007Z,7.73
2022-10-25T09:48:23.986Z,7.40
2022-10-25T09:51:09.752Z,7.80
2022-10-25T09:53:40.244Z,7.60
2022-10-25T09:56:07.438Z,8.10
2022-10-25T09:58:40.632Z,7.77
2022-10-25T10:01:16.686Z,14.53
2022-10-25T10:03:46.709Z,8.57
2022-10-25T10:06:24.600Z,7.93
2022-10-25T10:09:05.095Z,8.43
2022-10-25T10:11:33.845Z,8.63
2022-10-25T10:14:26.469Z,7.97
2022-10-25T10:17:07.847Z,7.67
2022-10-25T10:19:35.045Z,8.63
2022-10-25T10:48:25.605Z,8.70
2022-10-25T10:51:42.521Z,8.00
2022-10-25T10:54:40.829Z,7.97
2022-10-25T11:03:59.514Z,6.50
2022-10-25T11:19:20.983Z,6.10
2022-10-25T11:22:09.734Z,6.60
2022-10-25T11:24:58.347Z,6.27
2022-10-25T11:27:54.365Z,6.63
2022-10-25T11:30:32.099Z,5.90
2022-10-25T11:33:17.334Z,6.20
2022-10-25T11:36:09.031Z,5.70
2022-10-25T11:39:05.954Z,6.20
2022-10-25T11:42:00.612Z,5.90
2022-10-25T11:44:52.062Z,6.60
2022-10-25T11:48:04.721Z,5.97
2022-10-25T11:50:45.818Z,6.67
2022-10-25T11:53:43.045Z,5.83
2022-10-25T11:56:23.031Z,6.33
2022-10-25T11:59:08.486Z,20.40
2022-10-25T12:01:48.780Z,6.50
2022-10-25T12:04:52.475Z,6.50
2022-10-25T12:07:36.597Z,6.67
2022-10-25T12:10:09.787Z,6.93
2022-10-25T12:12:57.936Z,7.47
2022-10-25T12:15:34.373Z,6.07
2022-10-25T12:18:22.570Z,7.37
2022-10-25T12:20:53.373Z,7.77
2022-10-25T12:23:24.331Z,25.87
2022-10-25T12:25:57.030Z,6.80
2022-10-25T12:28:36.014Z,6.17
2022-10-25T12:31:13.416Z,7.10
2022-10-25T12:34:00.233Z,6.47
2022-10-25T12:36:38.997Z,6.60
2022-10-25T12:39:38.873Z,6.73
2022-10-25T12:42:35.873Z,6.07
2022-10-25T12:45:24.344Z,6.57
2022-10-25T12:48:08.860Z,6.30
2022-10-25T12:50:54.530Z,6.17
2022-10-25T12:53:59.071Z,6.50
2022-10-25T12:56:45.750Z,6.03
2022-10-25T13:06:12.096Z,5.57
2022-10-25T13:08:40.943Z,5.07
2022-10-25T13:11:10.141Z,6.20
2022-10-25T13:13:46.163Z,5.23
2022-10-25T13:16:27.679Z,5.63
2022-10-25T13:22:28.025Z,5.57
2022-10-25T13:24:57.172Z,5.87
2022-10-25T13:27:26.574Z,5.30
2022-10-25T13:33:15.331Z,4.97
2022-10-25T13:35:48.557Z,4.43
2022-10-25T13:38:39.864Z,5.13
2022-10-25T13:41:10.331Z,5.13
2022-10-25T13:43:53.310Z,4.93
2022-10-25T13:46:27.315Z,5.37
2022-10-25T13:48:55.065Z,5.40
2022-10-25T13:51:23.058Z,5.60
2022-10-25T13:53:54.220Z,6.60
2022-10-25T13:56:25.526Z,5.70
2022-10-25T13:58:54.988Z,5.60
2022-10-25T14:01:24.184Z,5.10
2022-10-25T14:04:10.404Z,5.93
2022-10-25T14:06:41.428Z,5.80
2022-10-25T14:09:35.157Z,5.40
2022-10-25T14:12:02.429Z,5.90
2022-10-25T14:14:42.318Z,6.43
2022-10-25T14:17:29.826Z,6.77
2022-10-25T14:20:09.350Z,5.63
2022-10-25T14:22:38.415Z,6.17
2022-10-25T14:25:36.933Z,6.53
2022-10-25T14:28:10.438Z,6.50
2022-10-25T14:30:42.363Z,5.90
2022-10-25T14:33:21.652Z,7.03
2022-10-25T14:35:58.181Z,6.30
2022-10-25T14:38:28.367Z,5.87
2022-10-25T14:41:00.580Z,5.30
2022-10-25T14:43:38.521Z,5.97
2022-10-25T14:46:14.961Z,6.60
2022-10-25T14:48:46.726Z,6.20
2022-10-25T14:51:24.342Z,6.57
2022-10-25T14:54:14.790Z,6.50
2022-10-25T14:56:57.806Z,6.50
2022-10-25T14:59:30.576Z,7.13
2022-10-25T15:02:03.022Z,6.33
2022-10-25T15:04:38.906Z,6.60
2022-10-25T15:07:07.723Z,6.53
2022-10-25T15:09:42.583Z,6.97
2022-10-25T15:12:13.138Z,7.20
2022-10-25T15:14:40.547Z,7.40
2022-10-25T15:17:22.211Z,7.03
2022-10-25T15:20:03.117Z,6.17
2022-10-25T15:22:33.528Z,6.90
2022-10-25T15:25:00.646Z,7.27
2022-10-25T15:27:39.538Z,6.63
2022-10-25T15:30:07.075Z,7.60
2022-10-25T15:32:35.767Z,7.23
2022-10-25T15:35:03.268Z,7.07
2022-10-25T15:37:30.559Z,6.70
2022-10-25T15:39:58.059Z,6.80
2022-10-25T15:42:26.121Z,7.13
2022-10-25T15:44:53.191Z,7.57
2022-10-25T15:47:34.464Z,7.60
2022-10-25T15:50:04.162Z,7.10
2022-10-25T15:52:31.224Z,7.17
2022-10-25T15:54:58.387Z,8.10
2022-10-25T15:57:27.247Z,7.80
2022-10-25T15:59:54.563Z,8.17
2022-10-25T16:02:27.058Z,9.47
2022-10-25T16:04:54.585Z,8.47
2022-10-25T16:07:22.317Z,9.27
2022-10-25T16:09:49.395Z,8.83
2022-10-25T16:12:28.825Z,9.43
2022-10-25T16:14:56.494Z,9.30
2022-10-25T16:17:23.478Z,9.53
2022-10-25T16:19:50.556Z,10.23
2022-10-25T16:22:17.575Z,9.97
2022-10-25T16:24:44.652Z,10.40
2022-10-25T16:27:12.621Z,9.63
2022-10-25T16:29:40.123Z,10.07
2022-10-25T16:32:07.249Z,10.20
2022-10-25T16:34:34.362Z,9.53
2022-10-25T16:37:01.217Z,10.97
2022-10-25T16:39:28.369Z,9.37
2022-10-25T16:41:58.274Z,9.97
2022-10-25T16:44:25.411Z,10.30
2022-10-25T16:46:52.364Z,9.93
2022-10-25T16:49:19.436Z,10.07
2022-10-25T16:51:46.309Z,10.23
2022-10-25T16:54:15.229Z,9.47
2022-10-25T16:56:42.560Z,9.80
2022-10-25T16:59:09.713Z,10.67
2022-10-25T17:01:41.248Z,10.50
2022-10-25T17:04:17.207Z,10.57
2022-10-25T17:06:44.125Z,9.77
2022-10-25T17:09:11.419Z,8.67
2022-10-25T17:11:38.740Z,9.67
2022-10-25T17:14:06.469Z,9.40
2022-10-25T17:16:33.547Z,9.13
2022-10-25T17:19:03.135Z,7.80
2022-10-25T17:21:31.484Z,8.40
2022-10-25T17:23:58.997Z,8.00
2022-10-25T17:26:25.946Z,8.60
2022-10-25T17:28:53.410Z,8.53
2022-10-25T17:31:20.310Z,8.00
2022-10-25T17:33:47.457Z,7.97
2022-10-25T17:36:17.313Z,8.37
2022-10-25T17:38:45.158Z,8.53
2022-10-25T17:41:13.159Z,8.80
2022-10-25T17:43:41.474Z,8.03
2022-10-25T17:46:20.102Z,8.53
2022-10-25T17:48:47.470Z,8.87
2022-10-25T17:51:15.374Z,9.57
2022-10-25T17:53:42.656Z,9.43
2022-10-25T17:56:17.448Z,9.70
2022-10-25T17:58:47.295Z,9.87
2022-10-25T18:01:17.420Z,9.17
2022-10-25T18:03:45.400Z,10.20
2022-10-25T18:06:16.592Z,10.00
2022-10-25T18:08:45.429Z,10.40
2022-10-25T18:11:14.901Z,10.50
2022-10-25T18:13:42.220Z,10.90
2022-10-25T18:16:10.746Z,10.23
2022-10-25T18:18:38.889Z,10.43
2022-10-25T18:21:11.198Z,11.10
2022-10-25T18:23:39.112Z,10.97
2022-10-25T18:26:07.342Z,12.73
2022-10-25T18:28:35.883Z,12.07
2022-10-25T18:31:06.204Z,12.13
2022-10-25T18:33:34.705Z,11.00
2022-10-25T18:36:04.175Z,10.73
2022-10-25T18:38:31.320Z,10.20
2022-10-25T18:40:58.248Z,9.80
2022-10-25T18:43:25.402Z,8.87
2022-10-25T18:45:58.893Z,8.47
2022-10-25T18:48:26.763Z,8.60
2022-10-25T18:50:53.872Z,8.83
2022-10-25T18:53:21.161Z,8.77
2022-10-25T18:55:52.850Z,9.23
2022-10-25T18:58:20.033Z,9.83
2022-10-25T19:00:47.145Z,9.33
2022-10-25T19:03:15.905Z,9.63
2022-10-25T19:05:43.373Z,9.37
2022-10-25T19:08:12.595Z,9.23
2022-10-25T19:10:40.749Z,9.83
2022-10-25T19:13:11.737Z,8.93
2022-10-25T19:15:38.697Z,9.50
2022-10-25T19:18:05.751Z,8.33
2022-10-25T19:20:32.846Z,9.23
2022-10-25T19:22:59.994Z,10.70
2022-10-25T19:25:29.661Z,9.30
2022-10-25T19:27:57.276Z,9.27
2022-10-25T19:30:24.959Z,10.13
2022-10-25T19:32:52.179Z,9.67
2022-10-25T19:35:20.045Z,10.30
2022-10-25T19:37:47.411Z,10.53
2022-10-25T19:40:14.781Z,9.57
2022-10-25T19:42:41.843Z,10.43
2022-10-25T19:45:09.425Z,8.77
2022-10-25T19:47:36.679Z,9.37
2022-10-25T19:50:06.037Z,8.70
2022-10-25T19:52:39.522Z,9.03
2022-10-25T19:55:07.299Z,9.53
2022-10-25T19:57:35.237Z,9.30
2022-10-25T20:00:02.417Z,9.20
2022-10-25T20:02:29.775Z,10.07
2022-10-25T20:04:56.790Z,9.30
2022-10-25T20:07:23.990Z,9.60
2022-10-25T20:09:50.889Z,9.60
2022-10-25T20:12:17.926Z,9.10
2022-10-25T20:14:44.901Z,9.33
2022-10-25T20:17:13.369Z,9.83
2022-10-25T20:19:40.245Z,9.73
2022-10-25T20:22:07.304Z,9.23
2022-10-25T20:24:34.203Z,9.30
2022-10-25T20:27:01.923Z,9.57
2022-10-25T20:29:29.254Z,10.00
2022-10-25T20:31:56.373Z,9.53
2022-10-25T20:34:23.451Z,9.40
2022-10-25T20:36:50.572Z,8.67
2022-10-25T20:39:17.617Z,9.90
2022-10-25T20:41:45.117Z,9.63
2022-10-25T20:44:12.124Z,9.47
2022-10-25T20:46:39.213Z,9.40
2022-10-25T20:49:07.497Z,10.40
2022-10-25T20:51:35.030Z,9.53
2022-10-25T20:54:05.250Z,9.33
2022-10-25T20:56:32.287Z,9.73
2022-10-25T20:58:59.140Z,9.97
2022-10-25T21:01:26.293Z,9.83
2022-10-25T21:03:54.073Z,9.90
2022-10-25T21:06:21.224Z,9.90
2022-10-25T21:08:48.057Z,9.43
2022-10-25T21:11:15.182Z,9.77
2022-10-25T21:13:43.219Z,9.17
2022-10-25T21:16:15.238Z,9.47
2022-10-25T21:18:42.956Z,10.07
2022-10-25T21:21:18.066Z,9.47
2022-10-25T21:23:46.847Z,10.20
2022-10-25T21:26:14.390Z,9.90
2022-10-25T21:28:41.839Z,9.63
2022-10-25T21:31:11.511Z,11.07
2022-10-25T21:33:39.237Z,9.93
2022-10-25T21:36:09.326Z,9.67
2022-10-25T21:38:36.413Z,9.93
2022-10-25T21:41:11.446Z,9.93
2022-10-25T21:43:43.007Z,9.53
2022-10-25T21:46:10.242Z,10.27
2022-10-25T21:48:43.753Z,9.23
2022-10-25T21:51:10.936Z,9.50
2022-10-25T21:53:38.164Z,10.27
2022-10-25T21:56:10.439Z,10.10
2022-10-25T21:58:38.416Z,9.90
2022-10-25T22:01:16.831Z,10.57
2022-10-25T22:03:43.920Z,10.63
2022-10-25T22:06:13.030Z,10.27
2022-10-25T22:08:40.282Z,10.33
2022-10-25T22:11:19.567Z,11.43
2022-10-25T22:13:47.538Z,10.37
2022-10-25T22:16:16.888Z,9.90
2022-10-25T22:18:49.570Z,11.47
2022-10-25T22:21:16.788Z,10.60
2022-10-25T22:23:43.904Z,12.03
2022-10-25T22:26:13.543Z,10.90
2022-10-25T22:28:41.501Z,11.57
2022-10-25T22:31:15.246Z,11.93
2022-10-25T22:33:43.392Z,12.50
2022-10-25T22:36:13.598Z,11.60
2022-10-25T22:38:40.604Z,10.93
2022-10-25T22:41:12.297Z,10.97
2022-10-25T22:43:40.277Z,10.17
2022-10-25T22:46:11.222Z,11.73
2022-10-25T22:48:40.102Z,10.73
2022-10-25T22:51:08.248Z,10.57
2022-10-25T22:53:36.104Z,10.57
2022-10-25T22:56:28.437Z,11.70
2022-10-25T22:59:05.060Z,11.83
2022-10-25T23:01:34.836Z,11.70
2022-10-25T23:04:04.284Z,12.07
2022-10-25T23:06:33.807Z,11.63
2022-10-25T23:09:03.350Z,10.53
2022-10-25T23:11:32.242Z,13.57
2022-10-25T23:14:00.616Z,11.47
2022-10-25T23:16:28.550Z,12.57
2022-10-25T23:18:56.136Z,12.30
2022-10-25T23:21:29.965Z,12.93
2022-10-25T23:23:58.889Z,13.10
2022-10-25T23:26:34.447Z,12.47
2022-10-25T23:29:01.955Z,12.73
2022-10-25T23:31:30.602Z,11.90
2022-10-25T23:34:00.004Z,12.47
2022-10-25T23:36:29.189Z,13.17
2022-10-25T23:38:56.687Z,14.03
2022-10-25T23:41:24.033Z,13.20
2022-10-25T23:43:51.164Z,12.60
2022-10-25T23:46:18.576Z,13.93
2022-10-25T23:48:45.582Z,14.00
2022-10-25T23:51:15.692Z,13.60
2022-10-25T23:53:43.053Z,13.60
2022-10-25T23:56:12.392Z,13.37
2022-10-25T23:58:39.829Z,13.93
